Station Historical Data
 
Daily Summary for September 16, 2019 Units:  English    Metric   Both
« Previous Day
Next Day »
Daily Weekly Monthly Yearly Custom
  Current: High: Low: Average:
Temperature: 62.9 °F 63.1 °F 61.5 °F 62.6 °F
Dew Point: 62.6 °F 62.8 °F 60.7 °F 62 °F
Humidity: 99% 99% 96% 98%
Wind Speed: 0mph 0mph 0mph 0mph
Wind Gust: 0mph 0mph - -
WindCalm - -
Pressure: 30.06 in 30.08 in 30.06 in -
Precipitation: 0 in      
Historical Graphs
 
 
Tabular Data for September 16, 2019
Time Temperature Dew Point Pressure Wind Wind Speed Wind Gust Humidity Rainfall Rate (Hourly) solar Conditions
00:00 62.8 °F 61.6 °F 30.07 in Calm     96% 0 in WeatherDisplay:10.37 W/m2 RA
00:05 62.8 °F 61.6 °F 30.07 in Calm     96% 0 in WeatherDisplay:10.37 W/m2 CLR
00:10 62.9 °F 61.7 °F 30.07 in Calm     96% 0 in WeatherDisplay:10.37 W/m2 CLR
00:15 62.9 °F 61.7 °F 30.07 in Calm     96% 0 in WeatherDisplay:10.37 W/m2 CLR
00:20 62.9 °F 61.7 °F 30.07 in Calm     96% 0 in WeatherDisplay:10.37 W/m2 CLR
00:25 63 °F 61.8 °F 30.07 in Calm     96% 0 in WeatherDisplay:10.37 W/m2 CLR
00:30 63 °F 61.8 °F 30.07 in Calm     96% 0 in WeatherDisplay:10.37 W/m2 CLR
00:35 63.1 °F 61.9 °F 30.07 in Calm     96% 0 in WeatherDisplay:10.37 W/m2 CLR
00:40 63.1 °F 61.9 °F 30.08 in Calm     96% 0 in WeatherDisplay:10.37 W/m2 CLR
00:45 63.1 °F 61.9 °F 30.08 in Calm     96% 0 in WeatherDisplay:10.37 W/m2 CLR
00:50 63 °F 61.8 °F 30.08 in Calm     96% 0 in WeatherDisplay:10.37 W/m2 CLR
00:55 62.9 °F 61.7 °F 30.08 in Calm     96% 0 in WeatherDisplay:10.37 W/m2 CLR
01:00 62.8 °F 61.6 °F 30.08 in Calm     96% 0 in WeatherDisplay:10.37 W/m2 CLR
01:05 62.7 °F 61.5 °F 30.08 in Calm     96% 0 in WeatherDisplay:10.37 W/m2 CLR
01:10 62.6 °F 61.7 °F 30.08 in Calm     97% 0 in WeatherDisplay:10.37 W/m2 CLR
01:15 62.5 °F 61.6 °F 30.08 in Calm     97% 0 in WeatherDisplay:10.37 W/m2 CLR
01:20 62.3 °F 61.1 °F 30.07 in Calm     96% 0 in WeatherDisplay:10.37 W/m2 CLR
01:25 62.2 °F 61.3 °F 30.08 in Calm     97% 0 in WeatherDisplay:10.37 W/m2 CLR
01:30 62.1 °F 61.2 °F 30.07 in Calm     97% 0 in WeatherDisplay:10.37 W/m2 CLR
01:35 62 °F 61.1 °F 30.07 in Calm     97% 0 in WeatherDisplay:10.37 W/m2 CLR
01:40 61.9 °F 61 °F 30.07 in Calm     97% 0 in WeatherDisplay:10.37 W/m2 CLR
01:45 61.8 °F 60.9 °F 30.07 in Calm     97% 0 in WeatherDisplay:10.37 W/m2 CLR
01:50 61.6 °F 60.7 °F 30.07 in Calm     97% 0 in WeatherDisplay:10.37 W/m2 CLR
01:55 61.6 °F 60.7 °F 30.07 in Calm     97% 0 in WeatherDisplay:10.37 W/m2 CLR
02:00 61.5 °F 60.9 °F 30.07 in Calm     98% 0 in WeatherDisplay:10.37 W/m2 CLR
02:05 61.5 °F 60.9 °F 30.07 in Calm     98% 0 in WeatherDisplay:10.37 W/m2 CLR
02:10 61.6 °F 61 °F 30.07 in Calm     98% 0 in WeatherDisplay:10.37 W/m2 CLR
02:15 61.6 °F 61 °F 30.07 in Calm     98% 0 in WeatherDisplay:10.37 W/m2 CLR
02:20 61.7 °F 61.1 °F 30.07 in Calm     98% 0 in WeatherDisplay:10.37 W/m2 CLR
02:25 61.7 °F 61.1 °F 30.07 in Calm     98% 0 in WeatherDisplay:10.37 W/m2 CLR
02:30 61.8 °F 61.2 °F 30.06 in Calm     98% 0 in WeatherDisplay:10.37 W/m2 CLR
02:35 61.9 °F 61.6 °F 30.06 in Calm     99% 0 in WeatherDisplay:10.37 W/m2 CLR
02:40 62 °F 61.7 °F 30.06 in Calm     99% 0 in WeatherDisplay:10.37 W/m2 CLR
02:45 62.1 °F 61.8 °F 30.06 in Calm     99% 0 in WeatherDisplay:10.37 W/m2 CLR
02:50 62.3 °F 62 °F 30.06 in Calm     99% 0 in WeatherDisplay:10.37 W/m2 CLR
02:55 62.3 °F 62 °F 30.06 in Calm     99% 0 in WeatherDisplay:10.37 W/m2 CLR
03:00 62.4 °F 62.1 °F 30.06 in Calm     99% 0 in WeatherDisplay:10.37 W/m2 CLR
03:05 62.4 °F 62.1 °F 30.06 in Calm     99% 0 in WeatherDisplay:10.37 W/m2 CLR
03:10 62.5 °F 62.2 °F 30.06 in Calm     99% 0 in WeatherDisplay:10.37 W/m2 CLR
03:15 62.5 °F 62.2 °F 30.06 in Calm     99% 0 in WeatherDisplay:10.37 W/m2 CLR
03:20 62.5 °F 62.2 °F 30.06 in Calm     99% 0 in WeatherDisplay:10.37 W/m2 CLR
03:25 62.6 °F 62.3 °F 30.06 in Calm     99% 0 in WeatherDisplay:10.37 W/m2 CLR
03:30 62.6 °F 62.3 °F 30.06 in Calm     99% 0 in WeatherDisplay:10.37 W/m2 CLR
03:35 62.7 °F 62.4 °F 30.06 in Calm     99% 0 in WeatherDisplay:10.37 W/m2 CLR
03:40 62.7 °F 62.4 °F 30.06 in Calm     99% 0 in WeatherDisplay:10.37 W/m2 CLR
03:45 62.7 °F 62.4 °F 30.06 in Calm     99% 0 in WeatherDisplay:10.37 W/m2 CLR
03:50 62.8 °F 62.5 °F 30.07 in Calm     99% 0 in WeatherDisplay:10.37 W/m2 CLR
03:55 62.8 °F 62.5 °F 30.07 in Calm     99% 0 in WeatherDisplay:10.37 W/m2 CLR
04:00 62.8 °F 62.5 °F 30.07 in Calm     99% 0 in WeatherDisplay:10.37 W/m2 CLR
04:05 62.9 °F 62.6 °F 30.07 in Calm     99% 0 in WeatherDisplay:10.37 W/m2 CLR
04:10 62.9 °F 62.6 °F 30.07 in Calm     99% 0 in WeatherDisplay:10.37 W/m2 CLR
04:15 62.9 °F 62.6 °F 30.06 in Calm     99% 0 in WeatherDisplay:10.37 W/m2 CLR
04:20 62.9 °F 62.6 °F 30.06 in Calm     99% 0 in WeatherDisplay:10.37 W/m2 CLR
04:25 62.9 °F 62.6 °F 30.06 in Calm     99% 0 in WeatherDisplay:10.37 W/m2 CLR
04:30 63 °F 62.7 °F 30.06 in Calm     99% 0 in WeatherDisplay:10.37 W/m2 CLR
04:35 63 °F 62.7 °F 30.06 in Calm     99% 0 in WeatherDisplay:10.37 W/m2 CLR
04:40 63 °F 62.7 °F 30.06 in Calm     99% 0 in WeatherDisplay:10.37 W/m2 CLR
04:45 63 °F 62.7 °F 30.06 in Calm     99% 0 in WeatherDisplay:10.37 W/m2 CLR
04:50 62.9 °F 62.6 °F 30.06 in Calm     99% 0 in WeatherDisplay:10.37 W/m2 CLR
04:55 62.9 °F 62.6 °F 30.06 in Calm     99% 0 in WeatherDisplay:10.37 W/m2 CLR
05:00 62.9 °F 62.6 °F 30.06 in Calm     99% 0 in WeatherDisplay:10.37 W/m2 CLR
05:05 62.9 °F 62.6 °F 30.06 in Calm     99% 0 in WeatherDisplay:10.37 W/m2 CLR
05:10 62.9 °F 62.6 °F 30.06 in Calm     99% 0 in WeatherDisplay:10.37 W/m2 CLR
05:15 63 °F 62.7 °F 30.06 in Calm     99% 0 in WeatherDisplay:10.37 W/m2 CLR
05:20 62.9 °F 62.6 °F 30.06 in Calm     99% 0 in WeatherDisplay:10.37 W/m2 CLR
05:25 63 °F 62.7 °F 30.06 in Calm     99% 0 in WeatherDisplay:10.37 W/m2 CLR
05:30 63 °F 62.7 °F 30.07 in Calm     99% 0 in WeatherDisplay:10.37 W/m2 CLR
05:35 63.1 °F 62.8 °F 30.07 in Calm     99% 0 in WeatherDisplay:10.37 W/m2 CLR
05:40 63.1 °F 62.8 °F 30.07 in Calm     99% 0 in WeatherDisplay:10.37 W/m2 CLR
05:45 63.1 °F 62.8 °F 30.06 in Calm     99% 0 in WeatherDisplay:10.37 W/m2 CLR
05:50 63.1 °F 62.8 °F 30.06 in Calm     99% 0 in WeatherDisplay:10.37 W/m2 CLR
05:55 63.1 °F 62.8 °F 30.06 in Calm     99% 0 in WeatherDisplay:10.37 W/m2 CLR
06:00 63.1 °F 62.8 °F 30.06 in Calm     99% 0 in WeatherDisplay:10.37 W/m2 CLR
06:05 63 °F 62.7 °F 30.06 in Calm     99% 0 in WeatherDisplay:10.37 W/m2 CLR
06:10 62.9 °F 62.6 °F 30.06 in Calm     99% 0 in WeatherDisplay:10.37 W/m2 CLR
06:15 62.9 °F 62.6 °F 30.07 in Calm     99% 0 in WeatherDisplay:10.37 W/m2 CLR
06:20 62.9 °F 62.6 °F 30.06 in Calm     99% 0 in WeatherDisplay:10.37 W/m2 CLR
Lake Wynonah, (Auburn) PA USA